createdAt,value
2018-04-19T00:00:00.238Z,19.59
2018-04-19T00:01:00.054Z,19.59
2018-04-19T00:02:00.158Z,19.63
2018-04-19T00:03:00.095Z,19.59
2018-04-19T00:03:59.981Z,19.6
2018-04-19T00:05:00.100Z,19.61
2018-04-19T00:06:00.059Z,19.58
2018-04-19T00:06:59.988Z,19.59
2018-04-19T00:08:00.119Z,19.62
2018-04-19T00:09:00.145Z,19.57
2018-04-19T00:09:59.993Z,19.59
2018-04-19T00:11:00.120Z,19.61
2018-04-19T00:12:00.108Z,19.58
2018-04-19T00:13:00.102Z,19.59
2018-04-19T00:14:00.138Z,19.62
2018-04-19T00:15:00.053Z,19.58
2018-04-19T00:15:59.985Z,19.59
2018-04-19T00:17:00.096Z,19.61
2018-04-19T00:17:59.995Z,19.58
2018-04-19T00:19:00.099Z,19.58
2018-04-19T00:20:00.238Z,19.6
2018-04-19T00:20:59.988Z,19.57
2018-04-19T00:22:00.059Z,19.58
2018-04-19T00:23:00.198Z,19.62
2018-04-19T00:24:00.265Z,19.58
2018-04-19T00:25:00.056Z,19.58
2018-04-19T00:26:00.185Z,19.61
2018-04-19T00:27:00.054Z,19.57
2018-04-19T00:28:00.163Z,19.58
2018-04-19T00:29:00.209Z,19.6
2018-04-19T00:30:00.015Z,19.57
2018-04-19T00:31:00.064Z,19.57
2018-04-19T00:32:00.166Z,19.61
2018-04-19T00:33:00.171Z,19.57
2018-04-19T00:34:00.028Z,19.57
2018-04-19T00:35:00.456Z,19.6
2018-04-19T00:36:00.278Z,19.57
2018-04-19T00:37:00.100Z,19.57
2018-04-19T00:37:59.932Z,19.6
2018-04-19T00:39:00.061Z,19.57
2018-04-19T00:39:59.986Z,19.57
2018-04-19T00:41:00.099Z,19.6
2018-04-19T00:41:59.998Z,19.57
2018-04-19T00:43:00.138Z,19.57
2018-04-19T00:44:00.077Z,19.6
2018-04-19T00:45:00.170Z,19.57
2018-04-19T00:46:00.144Z,19.57
2018-04-19T00:46:59.975Z,19.6
2018-04-19T00:47:59.924Z,19.57
2018-04-19T00:49:00.076Z,19.57
2018-04-19T00:49:59.978Z,19.58
2018-04-19T00:51:00.041Z,19.56
2018-04-19T00:52:00.000Z,19.57
2018-04-19T00:53:00.008Z,19.58
2018-04-19T00:54:00.025Z,19.56
2018-04-19T00:55:00.174Z,19.57
2018-04-19T00:56:00.092Z,19.59
2018-04-19T00:57:00.019Z,19.56
2018-04-19T00:58:00.018Z,19.57
2018-04-19T00:59:00.113Z,19.58
2018-04-19T00:59:59.981Z,19.56
2018-04-19T01:01:00.040Z,19.57
2018-04-19T01:02:00.009Z,19.59
2018-04-19T01:03:00.124Z,19.55
2018-04-19T01:04:00.061Z,19.56
2018-04-19T01:05:00.153Z,19.59
2018-04-19T01:06:00.049Z,19.56
2018-04-19T01:06:59.920Z,19.56
2018-04-19T01:08:00.000Z,19.58
2018-04-19T01:09:00.042Z,19.55
2018-04-19T01:10:00.058Z,19.56
2018-04-19T01:11:00.115Z,19.58
2018-04-19T01:12:00.080Z,19.55
2018-04-19T01:13:00.004Z,19.56
2018-04-19T01:14:00.143Z,19.58
2018-04-19T01:15:00.107Z,19.55
2018-04-19T01:16:00.074Z,19.56
2018-04-19T01:16:59.951Z,19.57
2018-04-19T01:17:59.929Z,19.54
2018-04-19T01:18:59.941Z,19.55
2018-04-19T01:20:00.012Z,19.57
2018-04-19T01:20:59.994Z,19.54
2018-04-19T01:22:00.009Z,19.55
2018-04-19T01:23:00.165Z,19.58
2018-04-19T01:24:00.032Z,19.54
2018-04-19T01:25:00.189Z,19.55
2018-04-19T01:25:59.940Z,19.57
2018-04-19T01:27:00.151Z,19.53
2018-04-19T01:28:00.021Z,19.55
2018-04-19T01:29:00.111Z,19.57
2018-04-19T01:30:00.006Z,19.54
2018-04-19T01:31:00.070Z,19.54
2018-04-19T01:31:59.963Z,19.57
2018-04-19T01:33:00.195Z,19.53
2018-04-19T01:34:00.147Z,19.54
2018-04-19T01:34:59.982Z,19.57
2018-04-19T01:36:00.214Z,19.53
2018-04-19T01:37:00.036Z,19.54
2018-04-19T01:38:00.060Z,19.57
2018-04-19T01:39:00.229Z,19.53
2018-04-19T01:40:00.238Z,19.54
2018-04-19T01:41:00.050Z,19.57
2018-04-19T01:42:00.067Z,19.53
2018-04-19T01:43:00.081Z,19.54
2018-04-19T01:44:00.040Z,19.57
2018-04-19T01:44:59.933Z,19.53
2018-04-19T01:46:00.133Z,19.53
2018-04-19T01:47:00.006Z,19.56
2018-04-19T01:47:59.943Z,19.52
2018-04-19T01:49:00.050Z,19.53
2018-04-19T01:50:00.149Z,19.56
2018-04-19T01:51:00.140Z,19.52
2018-04-19T01:52:00.049Z,19.53
2018-04-19T01:53:00.088Z,19.56
2018-04-19T01:54:00.031Z,19.52
2018-04-19T01:54:59.959Z,19.53
2018-04-19T01:56:00.150Z,19.55
2018-04-19T01:57:00.022Z,19.52
2018-04-19T01:58:00.164Z,19.53
2018-04-19T01:59:00.025Z,19.55
2018-04-19T02:00:00.178Z,19.51
2018-04-19T02:01:00.060Z,19.53
2018-04-19T02:02:00.154Z,19.55
2018-04-19T02:02:59.980Z,19.52
2018-04-19T02:04:02.179Z,19.52
2018-04-19T02:05:00.219Z,19.55
2018-04-19T02:06:00.236Z,19.51
2018-04-19T02:07:00.152Z,19.52
2018-04-19T02:08:00.186Z,19.54
2018-04-19T02:08:59.994Z,19.51
2018-04-19T02:09:59.954Z,19.52
2018-04-19T02:11:00.170Z,19.55
2018-04-19T02:12:00.120Z,19.51
2018-04-19T02:13:00.111Z,19.52
2018-04-19T02:14:00.099Z,19.56
2018-04-19T02:15:00.062Z,19.51
2018-04-19T02:16:00.116Z,19.52
2018-04-19T02:16:59.924Z,19.55
2018-04-19T02:18:00.149Z,19.51
2018-04-19T02:19:00.024Z,19.52
2018-04-19T02:20:00.022Z,19.54
2018-04-19T02:20:59.980Z,19.51
2018-04-19T02:22:00.161Z,19.51
2018-04-19T02:22:59.892Z,19.54
2018-04-19T02:24:00.057Z,19.51
2018-04-19T02:24:59.958Z,19.52
2018-04-19T02:25:59.929Z,19.53
2018-04-19T02:27:00.028Z,19.51
2018-04-19T02:28:00.019Z,19.51
2018-04-19T02:29:00.126Z,19.55
2018-04-19T02:30:00.124Z,19.51
2018-04-19T02:31:00.188Z,19.51
2018-04-19T02:32:00.255Z,19.53
2018-04-19T02:33:00.167Z,19.51
2018-04-19T02:34:00.122Z,19.51
2018-04-19T02:35:00.156Z,19.54
2018-04-19T02:36:01.634Z,19.51
2018-04-19T02:37:00.015Z,19.51
2018-04-19T02:38:00.086Z,19.54
2018-04-19T02:39:00.020Z,19.51
2018-04-19T02:40:00.103Z,19.51
2018-04-19T02:40:59.935Z,19.54
2018-04-19T02:41:59.980Z,19.51
2018-04-19T02:43:00.144Z,19.51
2018-04-19T02:44:00.121Z,19.52
2018-04-19T02:44:59.903Z,19.5
2018-04-19T02:46:00.135Z,19.51
2018-04-19T02:47:00.108Z,19.53
2018-04-19T02:48:00.104Z,19.5
2018-04-19T02:49:00.941Z,19.51
2018-04-19T02:50:00.147Z,19.51
2018-04-19T02:51:00.023Z,19.5
2018-04-19T02:52:00.045Z,19.51
2018-04-19T02:52:59.972Z,19.52
2018-04-19T02:54:00.186Z,19.5
2018-04-19T02:55:00.175Z,19.51
2018-04-19T02:56:00.044Z,19.53
2018-04-19T02:57:00.009Z,19.5
2018-04-19T02:58:00.072Z,19.5
2018-04-19T02:59:00.071Z,19.52
2018-04-19T02:59:59.950Z,19.5
2018-04-19T03:01:00.037Z,19.5
2018-04-19T03:01:59.945Z,19.51
2018-04-19T03:03:00.119Z,19.49
2018-04-19T03:04:00.144Z,19.5
2018-04-19T03:05:00.074Z,19.52
2018-04-19T03:06:00.084Z,19.49
2018-04-19T03:07:00.088Z,19.5
2018-04-19T03:08:00.206Z,19.52
2018-04-19T03:09:00.185Z,19.49
2018-04-19T03:09:59.913Z,19.51
2018-04-19T03:10:59.970Z,19.51
2018-04-19T03:12:00.084Z,19.49
2018-04-19T03:13:00.120Z,19.5
2018-04-19T03:14:00.252Z,19.51
2018-04-19T03:14:59.923Z,19.49
2018-04-19T03:16:02.683Z,19.49
2018-04-19T03:17:00.061Z,19.51
2018-04-19T03:17:59.970Z,19.49
2018-04-19T03:19:00.148Z,19.5
2018-04-19T03:20:00.024Z,19.52
2018-04-19T03:20:59.907Z,19.49
2018-04-19T03:21:59.908Z,19.49
2018-04-19T03:23:00.166Z,19.51
2018-04-19T03:23:59.960Z,19.49
2018-04-19T03:25:00.078Z,19.49
2018-04-19T03:26:00.027Z,19.5
2018-04-19T03:27:00.017Z,19.48
2018-04-19T03:27:59.930Z,19.49
2018-04-19T03:29:00.467Z,19.51
2018-04-19T03:30:00.010Z,19.48
2018-04-19T03:31:00.143Z,19.49
2018-04-19T03:32:00.108Z,19.51
2018-04-19T03:33:00.156Z,19.48
2018-04-19T03:34:00.020Z,19.49
2018-04-19T03:34:59.947Z,19.51
2018-04-19T03:35:59.985Z,19.47
2018-04-19T03:37:00.121Z,19.49
2018-04-19T03:38:00.166Z,19.5
2018-04-19T03:39:00.019Z,19.48
2018-04-19T03:39:59.926Z,19.49
2018-04-19T03:41:00.195Z,19.5
2018-04-19T03:41:59.997Z,19.47
2018-04-19T03:43:00.102Z,19.48
2018-04-19T03:43:59.987Z,19.5
2018-04-19T03:45:00.025Z,19.47
2018-04-19T03:45:59.971Z,19.48
2018-04-19T03:46:59.995Z,19.5
2018-04-19T03:47:59.900Z,19.47
2018-04-19T03:49:00.026Z,19.48
2018-04-19T03:50:00.051Z,19.5
2018-04-19T03:51:00.193Z,19.47
2018-04-19T03:52:00.027Z,19.48
2018-04-19T03:52:59.956Z,19.5
2018-04-19T03:53:59.891Z,19.47
2018-04-19T03:55:00.007Z,19.48
2018-04-19T03:56:00.141Z,19.49
2018-04-19T03:57:00.061Z,19.47
2018-04-19T03:58:00.081Z,19.47
2018-04-19T03:58:59.875Z,19.5
2018-04-19T03:59:59.942Z,19.47
2018-04-19T04:01:00.264Z,19.47
2018-04-19T04:02:00.052Z,19.49
2018-04-19T04:03:00.072Z,19.46
2018-04-19T04:03:59.933Z,19.47
2018-04-19T04:05:00.058Z,19.5
2018-04-19T04:06:00.056Z,19.46
2018-04-19T04:07:00.017Z,19.47
2018-04-19T04:08:00.096Z,19.5
2018-04-19T04:08:59.974Z,19.46
2018-04-19T04:09:59.936Z,19.47
2018-04-19T04:11:00.097Z,19.49
2018-04-19T04:12:00.090Z,19.46
2018-04-19T04:13:00.130Z,19.47
2018-04-19T04:14:00.030Z,19.49
2018-04-19T04:15:00.035Z,19.46
2018-04-19T04:16:00.057Z,19.47
2018-04-19T04:16:59.990Z,19.49
2018-04-19T04:17:59.859Z,19.46
2018-04-19T04:18:59.963Z,19.47
2018-04-19T04:20:00.062Z,19.48
2018-04-19T04:21:00.091Z,19.46
2018-04-19T04:22:00.014Z,19.47
2018-04-19T04:23:00.019Z,19.49
2018-04-19T04:24:00.077Z,19.46
2018-04-19T04:25:00.110Z,19.46
2018-04-19T04:25:59.948Z,19.49
2018-04-19T04:27:00.078Z,19.46
2018-04-19T04:28:00.043Z,19.47
2018-04-19T04:28:59.868Z,19.48
2018-04-19T04:29:59.918Z,19.45
2018-04-19T04:31:00.268Z,19.46
2018-04-19T04:32:00.099Z,19.48
2018-04-19T04:32:59.867Z,19.46
2018-04-19T04:33:59.893Z,19.47
2018-04-19T04:34:59.976Z,19.49
2018-04-19T04:35:59.978Z,19.46
2018-04-19T04:36:59.878Z,19.47
2018-04-19T04:37:59.961Z,19.48
2018-04-19T04:38:59.909Z,19.46
2018-04-19T04:40:00.052Z,19.47
2018-04-19T04:41:00.078Z,19.48
2018-04-19T04:42:00.026Z,19.46
2018-04-19T04:43:00.168Z,19.47
2018-04-19T04:44:00.140Z,19.5
2018-04-19T04:44:59.899Z,19.46
2018-04-19T04:46:00.058Z,19.47
2018-04-19T04:46:59.858Z,19.49
2018-04-19T04:48:00.055Z,19.46
2018-04-19T04:48:59.921Z,19.47
2018-04-19T04:50:00.079Z,19.5
2018-04-19T04:50:59.994Z,19.46
2018-04-19T04:51:59.992Z,19.47
2018-04-19T04:52:59.976Z,19.49
2018-04-19T04:54:00.220Z,19.46
2018-04-19T04:55:00.084Z,19.47
2018-04-19T04:55:59.974Z,19.49
2018-04-19T04:57:00.098Z,19.46
2018-04-19T04:57:59.973Z,19.47
2018-04-19T04:59:00.029Z,19.49
2018-04-19T04:59:59.991Z,19.46
2018-04-19T05:00:59.926Z,19.47
2018-04-19T05:02:00.083Z,19.49
2018-04-19T05:02:59.986Z,19.46
2018-04-19T05:03:59.990Z,19.47
2018-04-19T05:05:00.110Z,19.49
2018-04-19T05:05:59.958Z,19.46
2018-04-19T05:06:59.895Z,19.47
2018-04-19T05:07:59.928Z,19.5
2018-04-19T05:09:00.020Z,19.46
2018-04-19T05:10:00.177Z,19.47
2018-04-19T05:11:00.123Z,19.5
2018-04-19T05:12:00.074Z,19.47
2018-04-19T05:13:00.112Z,19.47
2018-04-19T05:13:59.859Z,19.5
2018-04-19T05:14:59.869Z,19.46
2018-04-19T05:16:00.101Z,19.47
2018-04-19T05:17:00.095Z,19.5
2018-04-19T05:17:59.964Z,19.46
2018-04-19T05:19:00.120Z,19.47
2018-04-19T05:19:59.848Z,19.5
2018-04-19T05:21:00.062Z,19.46
2018-04-19T05:22:00.040Z,19.47
2018-04-19T05:23:00.081Z,19.49
2018-04-19T05:23:59.943Z,19.47
2018-04-19T05:25:00.058Z,19.47
2018-04-19T05:26:00.120Z,19.5
2018-04-19T05:27:00.057Z,19.47
2018-04-19T05:27:59.938Z,19.48
2018-04-19T05:29:00.019Z,19.5
2018-04-19T05:30:00.047Z,19.46
2018-04-19T05:30:59.977Z,19.47
2018-04-19T05:32:00.048Z,19.49
2018-04-19T05:33:00.021Z,19.46
2018-04-19T05:33:59.882Z,19.47
2018-04-19T05:34:59.874Z,19.49
2018-04-19T05:35:59.892Z,19.46
2018-04-19T05:36:59.916Z,19.47
2018-04-19T05:38:00.001Z,19.49
2018-04-19T05:39:00.035Z,19.47
2018-04-19T05:40:00.000Z,19.47
2018-04-19T05:41:00.101Z,19.5
2018-04-19T05:42:00.147Z,19.46
2018-04-19T05:43:00.109Z,19.47
2018-04-19T05:44:00.018Z,19.49
2018-04-19T05:44:59.850Z,19.47
2018-04-19T05:46:00.056Z,19.47
2018-04-19T05:46:59.959Z,19.51
2018-04-19T05:48:00.036Z,19.47
2018-04-19T05:49:00.046Z,19.47
2018-04-19T05:49:59.884Z,19.5
2018-04-19T05:50:59.941Z,19.47
2018-04-19T05:52:00.187Z,19.47
2018-04-19T05:52:59.821Z,19.49
2018-04-19T05:53:59.969Z,19.46
2018-04-19T05:54:59.989Z,19.47
2018-04-19T05:56:00.069Z,19.49
2018-04-19T05:57:00.235Z,19.47
2018-04-19T05:57:59.993Z,19.47
2018-04-19T05:59:00.066Z,19.5
2018-04-19T05:59:59.941Z,19.46
2018-04-19T06:01:00.066Z,19.47
2018-04-19T06:01:59.931Z,19.48
2018-04-19T06:03:00.014Z,19.46
2018-04-19T06:04:00.006Z,19.47
2018-04-19T06:05:00.029Z,19.5
2018-04-19T06:06:00.013Z,19.46
2018-04-19T06:06:59.925Z,19.47
2018-04-19T06:08:00.118Z,19.49
2018-04-19T06:09:00.047Z,19.47
2018-04-19T06:10:00.047Z,19.47
2018-04-19T06:11:00.070Z,19.48
2018-04-19T06:11:59.882Z,19.46
2018-04-19T06:13:00.024Z,19.46
2018-04-19T06:14:00.025Z,19.48
2018-04-19T06:15:00.053Z,19.47
2018-04-19T06:15:59.934Z,19.47
2018-04-19T06:17:00.141Z,19.49
2018-04-19T06:17:59.995Z,19.46
2018-04-19T06:19:00.046Z,19.47
2018-04-19T06:19:59.922Z,19.49
2018-04-19T06:21:00.143Z,19.46
2018-04-19T06:21:59.870Z,19.47
2018-04-19T06:23:00.035Z,19.49
2018-04-19T06:24:00.123Z,19.46
2018-04-19T06:25:00.337Z,19.47
2018-04-19T06:26:00.077Z,19.49
2018-04-19T06:27:00.153Z,19.46
2018-04-19T06:27:59.988Z,19.47
2018-04-19T06:28:59.993Z,19.49
2018-04-19T06:29:59.992Z,19.46
2018-04-19T06:30:59.917Z,19.47
2018-04-19T06:32:00.179Z,19.48
2018-04-19T06:33:00.033Z,19.45
2018-04-19T06:34:00.106Z,19.47
2018-04-19T06:34:59.857Z,19.5
2018-04-19T06:36:00.351Z,19.46
2018-04-19T06:37:00.000Z,19.47
2018-04-19T06:37:59.936Z,19.5
2018-04-19T06:38:59.926Z,19.46
2018-04-19T06:39:59.930Z,19.48
2018-04-19T06:41:00.041Z,19.5
2018-04-19T06:41:59.848Z,19.46
2018-04-19T06:43:00.001Z,19.47
2018-04-19T06:43:59.996Z,19.49
2018-04-19T06:44:59.909Z,19.46
2018-04-19T06:45:59.984Z,19.47
2018-04-19T06:46:59.920Z,19.5
2018-04-19T06:47:59.891Z,19.46
2018-04-19T06:49:00.030Z,19.47
2018-04-19T06:50:01.839Z,19.51
2018-04-19T06:50:59.854Z,19.47
2018-04-19T06:52:00.019Z,19.47
2018-04-19T06:52:59.839Z,19.49
2018-04-19T06:53:59.889Z,19.46
2018-04-19T06:55:00.047Z,19.47
2018-04-19T06:55:59.953Z,19.5
2018-04-19T06:57:00.045Z,19.46
2018-04-19T06:58:00.053Z,19.47
2018-04-19T06:58:59.954Z,19.5
2018-04-19T06:59:59.944Z,19.46
2018-04-19T07:01:00.264Z,19.48
2018-04-19T07:01:59.866Z,19.5
2018-04-19T07:02:59.805Z,19.47
2018-04-19T07:03:59.971Z,19.48
2018-04-19T07:04:59.976Z,19.5
2018-04-19T07:06:00.050Z,19.47
2018-04-19T07:07:00.073Z,19.47
2018-04-19T07:08:00.093Z,19.5
2018-04-19T07:08:59.953Z,19.46
2018-04-19T07:09:59.952Z,19.48
2018-04-19T07:10:59.883Z,19.5
2018-04-19T07:11:59.916Z,19.47
2018-04-19T07:12:59.887Z,19.48
2018-04-19T07:14:00.044Z,19.5
2018-04-19T07:14:59.949Z,19.47
2018-04-19T07:16:00.010Z,19.47
2018-04-19T07:16:59.992Z,19.5
2018-04-19T07:18:00.077Z,19.47
2018-04-19T07:19:00.145Z,19.47
2018-04-19T07:19:59.808Z,19.5
2018-04-19T07:20:59.867Z,19.46
2018-04-19T07:21:59.906Z,19.48
2018-04-19T07:23:00.026Z,19.51
2018-04-19T07:24:00.073Z,19.47
2018-04-19T07:25:00.038Z,19.48
2018-04-19T07:25:59.828Z,19.5
2018-04-19T07:27:00.075Z,19.47
2018-04-19T07:28:00.042Z,19.48
2018-04-19T07:29:00.084Z,19.5
2018-04-19T07:29:59.972Z,19.47
2018-04-19T07:30:59.935Z,19.47
2018-04-19T07:32:00.077Z,19.5
2018-04-19T07:32:59.820Z,19.47
2018-04-19T07:33:59.832Z,19.48
2018-04-19T07:35:00.016Z,19.49
2018-04-19T07:35:59.842Z,19.46
2018-04-19T07:36:59.984Z,19.47
2018-04-19T07:37:59.980Z,19.49
2018-04-19T07:39:00.297Z,19.46
2018-04-19T07:40:00.014Z,19.47
2018-04-19T07:41:01.835Z,19.49
2018-04-19T07:42:00.042Z,19.46
2018-04-19T07:43:00.125Z,19.47
2018-04-19T07:44:00.163Z,19.5
2018-04-19T07:44:59.997Z,19.47
2018-04-19T07:45:59.968Z,19.47
2018-04-19T07:46:59.994Z,19.49
2018-04-19T07:47:59.989Z,19.46
2018-04-19T07:49:00.048Z,19.47
2018-04-19T07:49:59.979Z,19.5
2018-04-19T07:50:59.904Z,19.46
2018-04-19T07:52:00.028Z,19.47
2018-04-19T07:52:59.996Z,19.49
2018-04-19T07:53:59.799Z,19.46
2018-04-19T07:54:59.873Z,19.47
2018-04-19T07:55:59.858Z,19.49
2018-04-19T07:56:59.890Z,19.46
2018-04-19T07:58:00.237Z,19.48
2018-04-19T07:59:00.012Z,19.49
2018-04-19T07:59:59.827Z,19.46
2018-04-19T08:00:59.941Z,19.47
2018-04-19T08:01:59.987Z,19.5
2018-04-19T08:02:59.814Z,19.46
2018-04-19T08:04:00.077Z,19.47
2018-04-19T08:04:59.870Z,19.5
2018-04-19T08:05:59.913Z,19.46
2018-04-19T08:07:00.053Z,19.47
2018-04-19T08:07:59.867Z,19.5
2018-04-19T08:08:59.940Z,19.47
2018-04-19T08:09:59.950Z,19.47
2018-04-19T08:10:59.892Z,19.51
2018-04-19T08:11:59.897Z,19.46
2018-04-19T08:12:59.787Z,19.47
2018-04-19T08:13:59.922Z,19.5
2018-04-19T08:15:01.132Z,19.46
2018-04-19T08:16:00.019Z,19.47
2018-04-19T08:17:00.025Z,19.5
2018-04-19T08:17:59.909Z,19.46
2018-04-19T08:19:00.023Z,19.47
2018-04-19T08:19:59.831Z,19.49
2018-04-19T08:21:00.127Z,19.46
2018-04-19T08:21:59.973Z,19.47
2018-04-19T08:22:59.856Z,19.51
2018-04-19T08:24:00.037Z,19.47
2018-04-19T08:24:59.816Z,19.48
2018-04-19T08:26:00.086Z,19.5
2018-04-19T08:27:00.115Z,19.46
2018-04-19T08:28:00.109Z,19.47
2018-04-19T08:28:59.867Z,19.5
2018-04-19T08:29:59.972Z,19.46
2018-04-19T08:30:59.941Z,19.47
2018-04-19T08:31:59.801Z,19.5
2018-04-19T08:32:59.974Z,19.45
2018-04-19T08:33:59.911Z,19.47
2018-04-19T08:34:59.927Z,19.48
2018-04-19T08:36:00.015Z,19.46
2018-04-19T08:36:59.941Z,19.47
2018-04-19T08:37:59.908Z,19.5
2018-04-19T08:39:00.072Z,19.46
2018-04-19T08:39:59.795Z,19.46
2018-04-19T08:40:59.816Z,19.49
2018-04-19T08:41:59.869Z,19.46
2018-04-19T08:42:59.817Z,19.46
2018-04-19T08:43:59.987Z,19.49
2018-04-19T08:44:59.877Z,19.46
2018-04-19T08:45:59.896Z,19.47
2018-04-19T08:47:00.053Z,19.51
2018-04-19T08:47:59.917Z,19.46
2018-04-19T08:49:00.090Z,19.47
2018-04-19T08:49:59.965Z,19.49
2018-04-19T08:50:59.795Z,19.46
2018-04-19T08:52:00.037Z,19.47
2018-04-19T08:53:00.024Z,19.49
2018-04-19T08:53:59.975Z,19.46
2018-04-19T08:54:59.896Z,19.47
2018-04-19T08:55:59.870Z,19.49
2018-04-19T08:56:59.963Z,19.46
2018-04-19T08:57:59.825Z,19.47
2018-04-19T08:58:59.925Z,19.48
2018-04-19T08:59:59.909Z,19.46
2018-04-19T09:00:59.883Z,19.47
2018-04-19T09:02:00.010Z,19.49
2018-04-19T09:02:59.980Z,19.46
2018-04-19T09:03:59.863Z,19.46
2018-04-19T09:05:00.062Z,19.49
2018-04-19T09:05:59.865Z,19.45
2018-04-19T09:06:59.883Z,19.46
2018-04-19T09:08:00.338Z,19.49
2018-04-19T09:08:59.900Z,19.45
2018-04-19T09:09:59.806Z,19.47
2018-04-19T09:10:59.981Z,19.49
2018-04-19T09:11:59.951Z,19.46
2018-04-19T09:13:00.019Z,19.46
2018-04-19T09:14:00.072Z,19.48
2018-04-19T09:14:59.875Z,19.46
2018-04-19T09:15:59.929Z,19.46
2018-04-19T09:16:59.790Z,19.49
2018-04-19T09:18:00.139Z,19.46
2018-04-19T09:19:00.010Z,19.46
2018-04-19T09:20:00.458Z,19.49
2018-04-19T09:20:59.762Z,19.46
2018-04-19T09:22:00.035Z,19.46
2018-04-19T09:22:59.832Z,19.49
2018-04-19T09:23:59.900Z,19.45
2018-04-19T09:25:00.044Z,19.47
2018-04-19T09:25:59.928Z,19.48
2018-04-19T09:26:59.966Z,19.46
2018-04-19T09:28:00.075Z,19.46
2018-04-19T09:28:59.803Z,19.49
2018-04-19T09:29:59.995Z,19.46
2018-04-19T09:31:00.115Z,19.46
2018-04-19T09:32:00.054Z,19.48
2018-04-19T09:32:59.896Z,19.46
2018-04-19T09:34:00.035Z,19.46
2018-04-19T09:35:00.049Z,19.5
2018-04-19T09:36:00.054Z,19.46
2018-04-19T09:36:59.982Z,19.47
2018-04-19T09:37:59.923Z,19.49
2018-04-19T09:38:59.848Z,19.46
2018-04-19T09:40:00.116Z,19.46
2018-04-19T09:41:00.688Z,19.49
2018-04-19T09:42:00.937Z,19.46
2018-04-19T09:42:59.971Z,19.46
2018-04-19T09:44:00.044Z,19.49
2018-04-19T09:45:00.111Z,19.45
2018-04-19T09:45:59.891Z,19.46
2018-04-19T09:46:59.836Z,19.49
2018-04-19T09:47:59.857Z,19.45
2018-04-19T09:49:00.027Z,19.46
2018-04-19T09:50:00.105Z,19.5
2018-04-19T09:51:00.102Z,19.46
2018-04-19T09:51:59.889Z,19.47
2018-04-19T09:52:59.923Z,19.51
2018-04-19T09:54:00.911Z,19.46
2018-04-19T09:55:00.124Z,19.46
2018-04-19T09:55:59.952Z,19.49
2018-04-19T09:57:00.115Z,19.45
2018-04-19T09:58:02.753Z,19.47
2018-04-19T09:59:00.032Z,19.48
2018-04-19T09:59:59.794Z,19.46
2018-04-19T10:00:59.777Z,19.46
2018-04-19T10:02:00.079Z,19.49
2018-04-19T10:02:59.858Z,19.45
2018-04-19T10:03:59.856Z,19.47
2018-04-19T10:04:59.992Z,19.49
2018-04-19T10:05:59.794Z,19.46
2018-04-19T10:06:59.888Z,19.47
2018-04-19T10:08:00.169Z,19.49
2018-04-19T10:08:59.965Z,19.46
2018-04-19T10:09:59.861Z,19.47
2018-04-19T10:10:59.770Z,19.48
2018-04-19T10:11:59.878Z,19.41
2018-04-19T10:12:59.963Z,19.45
2018-04-19T10:13:59.950Z,19.52
2018-04-19T10:15:00.047Z,19.51
2018-04-19T10:16:00.562Z,19.51
2018-04-19T10:16:59.742Z,19.56
2018-04-19T10:17:59.889Z,19.52
2018-04-19T10:18:59.737Z,19.54
2018-04-19T10:20:00.084Z,19.58
2018-04-19T10:20:59.955Z,19.57
2018-04-19T10:22:00.001Z,19.58
2018-04-19T10:22:59.935Z,19.62
2018-04-19T10:23:59.881Z,19.6
2018-04-19T10:24:59.968Z,19.6
2018-04-19T10:25:59.798Z,19.65
2018-04-19T10:26:59.900Z,19.62
2018-04-19T10:27:59.931Z,19.64
2018-04-19T10:28:59.838Z,19.66
2018-04-19T10:30:00.065Z,19.63
2018-04-19T10:30:59.998Z,19.61
2018-04-19T10:32:00.027Z,19.64
2018-04-19T10:33:01.033Z,19.6
2018-04-19T10:34:00.036Z,19.61
2018-04-19T10:35:00.088Z,19.63
2018-04-19T10:35:59.830Z,19.59
2018-04-19T10:36:59.868Z,19.59
2018-04-19T10:37:59.958Z,19.62
2018-04-19T10:38:59.991Z,19.58
2018-04-19T10:40:00.010Z,19.59
2018-04-19T10:41:00.037Z,19.61
2018-04-19T10:41:59.943Z,19.57
2018-04-19T10:42:59.919Z,19.57
2018-04-19T10:43:59.904Z,19.6
2018-04-19T10:45:00.017Z,19.57
2018-04-19T10:46:00.042Z,19.57
2018-04-19T10:47:00.159Z,19.61
2018-04-19T10:48:01.172Z,19.57
2018-04-19T10:48:59.876Z,19.57
2018-04-19T10:49:59.982Z,19.6
2018-04-19T10:51:00.018Z,19.56
2018-04-19T10:51:59.843Z,19.57
2018-04-19T10:53:00.106Z,19.59
2018-04-19T10:53:59.980Z,19.56
2018-04-19T10:55:00.009Z,19.57
2018-04-19T10:55:59.916Z,19.6
2018-04-19T10:56:59.882Z,19.56
2018-04-19T10:58:00.051Z,19.55
2018-04-19T10:59:00.036Z,19.59
2018-04-19T11:00:00.032Z,19.55
2018-04-19T11:01:00.441Z,19.56
2018-04-19T11:02:00.037Z,19.59
2018-04-19T11:02:59.971Z,19.55
2018-04-19T11:04:00.041Z,19.55
2018-04-19T11:04:59.924Z,19.58
2018-04-19T11:06:00.898Z,19.54
2018-04-19T11:07:00.013Z,19.54
2018-04-19T11:08:00.185Z,19.58
2018-04-19T11:09:00.813Z,19.54
2018-04-19T11:09:59.854Z,19.55
2018-04-19T11:10:59.864Z,19.57
2018-04-19T11:11:59.959Z,19.54
2018-04-19T11:12:59.825Z,19.54
2018-04-19T11:13:59.978Z,19.57
2018-04-19T11:14:59.957Z,19.53
2018-04-19T11:16:00.349Z,19.54
2018-04-19T11:16:59.797Z,19.57
2018-04-19T11:18:00.938Z,19.53
2018-04-19T11:19:00.037Z,19.54
2018-04-19T11:19:59.997Z,19.56
2018-04-19T11:21:00.038Z,19.53
2018-04-19T11:22:00.022Z,19.54
2018-04-19T11:22:59.960Z,19.57
2018-04-19T11:24:00.096Z,19.53
2018-04-19T11:25:00.576Z,19.54
2018-04-19T11:26:01.526Z,19.57
2018-04-19T11:27:00.062Z,19.53
2018-04-19T11:28:01.563Z,19.53
2018-04-19T11:28:59.978Z,19.57
2018-04-19T11:29:59.820Z,19.53
2018-04-19T11:31:00.584Z,19.53
2018-04-19T11:32:02.488Z,19.56
2018-04-19T11:33:00.486Z,19.53
2018-04-19T11:34:00.397Z,19.53
2018-04-19T11:35:00.547Z,19.57
2018-04-19T11:36:00.629Z,19.53
2018-04-19T11:37:00.442Z,19.53
2018-04-19T11:38:00.291Z,19.56
2018-04-19T11:39:00.386Z,19.52
2018-04-19T11:40:00.589Z,19.53
2018-04-19T11:41:00.351Z,19.57
2018-04-19T11:42:00.846Z,19.52
2018-04-19T11:43:00.172Z,19.53
2018-04-19T11:44:00.837Z,19.56
2018-04-19T11:45:00.965Z,19.52
2018-04-19T11:46:00.626Z,19.53
2018-04-19T11:47:00.553Z,19.56
2018-04-19T11:48:01.254Z,19.52
2018-04-19T11:49:00.304Z,19.53
2018-04-19T11:50:00.283Z,19.56
2018-04-19T11:51:00.495Z,19.52
2018-04-19T11:52:01.375Z,19.53
2018-04-19T11:53:02.311Z,19.57
2018-04-19T11:54:00.127Z,19.52
2018-04-19T11:55:00.831Z,19.53
2018-04-19T11:56:02.856Z,19.56
2018-04-19T11:57:01.175Z,19.52
2018-04-19T11:58:00.351Z,19.53
2018-04-19T11:58:59.916Z,19.56
2018-04-19T12:00:01.287Z,19.52
2018-04-19T12:01:00.299Z,19.52
2018-04-19T12:01:59.917Z,19.56
2018-04-19T12:03:00.237Z,19.52
2018-04-19T12:04:00.034Z,19.53
2018-04-19T12:04:59.978Z,19.56
2018-04-19T12:06:00.257Z,19.52
2018-04-19T12:06:59.900Z,19.52
2018-04-19T12:08:00.100Z,19.56
2018-04-19T12:09:01.221Z,19.51
2018-04-19T12:09:59.870Z,19.52
2018-04-19T12:11:00.470Z,19.56
2018-04-19T12:12:00.211Z,19.52
2018-04-19T12:13:00.076Z,19.52
2018-04-19T12:14:00.460Z,19.56
2018-04-19T12:14:59.940Z,19.51
2018-04-19T12:16:01.337Z,19.52
2018-04-19T12:17:00.093Z,19.57
2018-04-19T12:17:59.816Z,19.51
2018-04-19T12:18:59.964Z,19.51
2018-04-19T12:20:00.784Z,19.47
2018-04-19T12:21:00.105Z,19.5
2018-04-19T12:22:01.406Z,19.5
2018-04-19T12:23:00.864Z,19.57
2018-04-19T12:23:59.910Z,19.55
2018-04-19T12:24:59.761Z,19.59
2018-04-19T12:26:00.085Z,19.64
2018-04-19T12:26:59.811Z,19.61
2018-04-19T12:27:59.975Z,19.64
2018-04-19T12:29:00.307Z,19.67
2018-04-19T12:30:00.117Z,19.66
2018-04-19T12:30:59.960Z,19.67
2018-04-19T12:31:59.881Z,19.71
2018-04-19T12:32:59.955Z,19.69
2018-04-19T12:33:59.926Z,19.7
2018-04-19T12:34:59.986Z,19.73
2018-04-19T12:35:59.749Z,19.72
2018-04-19T12:36:59.762Z,19.74
2018-04-19T12:38:01.963Z,19.78
2018-04-19T12:39:00.073Z,19.75
2018-04-19T12:40:00.104Z,19.76
2018-04-19T12:40:59.800Z,19.8
2018-04-19T12:41:59.909Z,19.77
2018-04-19T12:42:59.923Z,19.78
2018-04-19T12:43:59.852Z,19.82
2018-04-19T12:45:00.409Z,19.79
2018-04-19T12:46:00.022Z,19.81
2018-04-19T12:46:59.874Z,19.82
2018-04-19T12:47:59.932Z,19.79
2018-04-19T12:48:59.937Z,19.76
2018-04-19T12:49:59.784Z,19.79
2018-04-19T12:50:59.825Z,19.79
2018-04-19T12:51:59.804Z,19.81
2018-04-19T12:53:00.060Z,19.84
2018-04-19T12:53:59.923Z,19.81
2018-04-19T12:55:00.024Z,19.81